createdAt,value
2022-10-09T00:00:01.667Z,25.60
2022-10-09T00:02:42.369Z,22.60
2022-10-09T00:05:13.165Z,23.70
2022-10-09T00:07:43.646Z,28.00
2022-10-09T00:10:14.088Z,22.30
2022-10-09T00:12:44.640Z,19.20
2022-10-09T00:15:15.393Z,27.40
2022-10-09T00:17:45.866Z,22.20
2022-10-09T00:20:16.857Z,20.30
2022-10-09T00:22:47.393Z,20.10
2022-10-09T00:25:18.255Z,29.00
2022-10-09T00:27:48.524Z,24.40
2022-10-09T00:30:18.950Z,21.90
2022-10-09T00:32:49.698Z,24.70
2022-10-09T00:35:20.582Z,21.80
2022-10-09T00:37:51.059Z,22.50
2022-10-09T00:40:21.429Z,17.00
2022-10-09T00:42:58.658Z,20.90
2022-10-09T00:45:30.287Z,17.00
2022-10-09T00:48:04.273Z,18.30
2022-10-09T00:50:43.027Z,18.60
2022-10-09T00:53:17.233Z,16.80
2022-10-09T00:55:48.056Z,16.00
2022-10-09T00:58:18.754Z,14.70
2022-10-09T01:00:49.573Z,22.70
2022-10-09T01:03:20.099Z,17.30
2022-10-09T01:06:00.090Z,15.10
2022-10-09T01:08:39.033Z,15.60
2022-10-09T01:11:15.351Z,14.00
2022-10-09T01:13:53.138Z,13.50
2022-10-09T01:16:28.317Z,19.00
2022-10-09T01:19:09.702Z,16.30
2022-10-09T01:21:47.645Z,14.70
2022-10-09T01:24:27.036Z,12.60
2022-10-09T01:27:06.585Z,20.90
2022-10-09T01:29:40.059Z,17.50
2022-10-09T01:32:14.189Z,16.80
2022-10-09T01:34:47.636Z,15.60
2022-10-09T01:37:20.860Z,15.20
2022-10-09T01:39:53.188Z,22.40
2022-10-09T01:42:26.486Z,15.80
2022-10-09T01:44:56.927Z,17.90
2022-10-09T01:47:27.874Z,12.70
2022-10-09T01:50:05.083Z,16.10
2022-10-09T01:52:44.824Z,14.10
2022-10-09T01:55:33.427Z,21.70
2022-10-09T01:58:11.118Z,12.70
2022-10-09T02:00:46.711Z,16.00
2022-10-09T02:03:19.641Z,15.30
2022-10-09T02:05:53.905Z,12.20
2022-10-09T02:08:25.594Z,14.60
2022-10-09T02:10:58.149Z,16.10
2022-10-09T02:13:29.223Z,15.90
2022-10-09T02:16:10.412Z,14.20
2022-10-09T02:18:45.447Z,13.60
2022-10-09T02:21:19.824Z,15.40
2022-10-09T02:23:52.282Z,18.00
2022-10-09T02:26:23.265Z,12.00
2022-10-09T02:28:54.282Z,15.00
2022-10-09T02:31:28.092Z,16.80
2022-10-09T02:34:00.238Z,14.90
2022-10-09T02:36:32.203Z,16.90
2022-10-09T02:39:03.753Z,15.20
2022-10-09T02:41:34.586Z,18.70
2022-10-09T02:44:06.430Z,15.00
2022-10-09T02:46:38.553Z,15.50
2022-10-09T02:49:09.497Z,20.20
2022-10-09T02:51:40.071Z,19.30
2022-10-09T02:54:11.637Z,19.60
2022-10-09T02:56:42.113Z,15.40
2022-10-09T02:59:12.620Z,18.80
2022-10-09T03:01:43.256Z,17.30
2022-10-09T03:04:13.981Z,16.60
2022-10-09T03:06:44.415Z,18.00
2022-10-09T03:09:15.112Z,20.20
2022-10-09T03:11:45.595Z,23.00
2022-10-09T03:14:16.108Z,15.30
2022-10-09T03:16:46.569Z,22.20
2022-10-09T03:19:17.142Z,19.20
2022-10-09T03:21:47.637Z,17.40
2022-10-09T03:24:18.121Z,16.00
2022-10-09T03:26:48.682Z,17.50
2022-10-09T03:29:19.042Z,20.30
2022-10-09T03:31:52.904Z,16.60
2022-10-09T03:34:23.885Z,18.40
2022-10-09T03:36:54.272Z,19.10
2022-10-09T03:39:24.850Z,21.20
2022-10-09T03:41:55.401Z,19.20
2022-10-09T03:44:25.913Z,18.20
2022-10-09T03:46:56.401Z,18.80
2022-10-09T03:49:27.062Z,21.40
2022-10-09T03:51:57.500Z,17.90
2022-10-09T03:54:28.010Z,19.60
2022-10-09T03:56:58.484Z,16.80
2022-10-09T03:59:28.920Z,18.50
2022-10-09T04:01:59.356Z,18.60
2022-10-09T04:04:29.730Z,20.70
2022-10-09T04:07:00.181Z,21.80
2022-10-09T04:09:30.838Z,17.80
2022-10-09T04:12:01.235Z,18.80
2022-10-09T04:14:31.712Z,16.70
2022-10-09T04:17:02.067Z,16.30
2022-10-09T04:19:32.542Z,15.90
2022-10-09T04:22:03.158Z,19.30
2022-10-09T04:24:33.672Z,15.70
2022-10-09T04:27:04.153Z,16.30
2022-10-09T04:29:34.555Z,19.10
2022-10-09T04:32:05.370Z,15.30
2022-10-09T04:34:35.888Z,18.50
2022-10-09T04:37:06.493Z,15.00
2022-10-09T04:39:36.896Z,18.70
2022-10-09T04:42:07.862Z,12.50
2022-10-09T04:44:38.341Z,13.80
2022-10-09T04:47:11.255Z,17.80
2022-10-09T04:49:42.150Z,18.20
2022-10-09T04:52:12.688Z,16.40
2022-10-09T04:54:43.210Z,16.10
2022-10-09T04:57:13.562Z,16.50
2022-10-09T04:59:44.146Z,13.90
2022-10-09T05:02:14.638Z,13.40
2022-10-09T05:04:45.109Z,17.20
2022-10-09T05:07:15.615Z,15.60
2022-10-09T05:09:46.097Z,14.30
2022-10-09T05:12:17.084Z,14.10
2022-10-09T05:14:47.526Z,15.70
2022-10-09T05:17:22.195Z,15.20
2022-10-09T05:19:53.903Z,15.70
2022-10-09T05:22:24.728Z,14.20
2022-10-09T05:24:55.206Z,15.90
2022-10-09T05:27:25.856Z,16.00
2022-10-09T05:29:56.250Z,17.90
2022-10-09T05:32:26.900Z,20.90
2022-10-09T05:34:57.435Z,14.90
2022-10-09T05:37:27.876Z,17.40
2022-10-09T05:39:58.426Z,17.90
2022-10-09T05:42:28.790Z,17.40
2022-10-09T05:44:59.189Z,12.80
2022-10-09T05:47:30.621Z,19.00
2022-10-09T05:52:29.951Z,18.10
2022-10-09T05:55:00.735Z,13.60
2022-10-09T05:57:31.093Z,14.30
2022-10-09T06:00:01.467Z,12.80
2022-10-09T06:02:31.964Z,16.50
2022-10-09T06:05:02.374Z,16.20
2022-10-09T06:07:33.307Z,15.50
2022-10-09T06:10:03.919Z,15.80
2022-10-09T06:12:34.318Z,13.10
2022-10-09T06:15:05.030Z,12.50
2022-10-09T06:17:36.391Z,13.80
2022-10-09T06:22:36.329Z,16.60
2022-10-09T06:25:07.966Z,15.30
2022-10-09T06:27:38.374Z,18.20
2022-10-09T06:30:11.022Z,14.90
2022-10-09T06:32:41.558Z,12.20
2022-10-09T06:35:12.410Z,13.20
2022-10-09T06:37:42.838Z,17.30
2022-10-09T06:40:13.527Z,15.00
2022-10-09T06:42:44.011Z,15.10
2022-10-09T06:45:20.513Z,14.00
2022-10-09T06:47:51.083Z,14.80
2022-10-09T06:50:21.635Z,13.80
2022-10-09T06:52:52.160Z,16.50
2022-10-09T06:55:26.464Z,15.10
2022-10-09T06:57:59.565Z,15.30
2022-10-09T07:00:30.083Z,19.40
2022-10-09T07:03:00.627Z,11.70
2022-10-09T07:05:31.108Z,18.60
2022-10-09T07:08:01.628Z,14.60
2022-10-09T07:10:32.031Z,12.80
2022-10-09T07:13:02.544Z,15.10
2022-10-09T07:15:33.082Z,18.30
2022-10-09T07:18:05.100Z,16.20
2022-10-09T07:20:38.452Z,15.30
2022-10-09T07:23:08.951Z,14.60
2022-10-09T07:25:41.186Z,16.80
2022-10-09T07:28:11.632Z,12.60
2022-10-09T07:30:42.270Z,12.50
2022-10-09T07:33:12.788Z,12.30
2022-10-09T07:35:43.241Z,14.80
2022-10-09T07:38:13.565Z,16.70
2022-10-09T07:40:43.977Z,14.60
2022-10-09T07:43:14.973Z,14.30
2022-10-09T07:45:46.357Z,11.60
2022-10-09T07:50:45.604Z,14.70
2022-10-09T07:53:16.127Z,13.20
2022-10-09T07:55:49.685Z,13.00
2022-10-09T07:58:20.112Z,14.40
2022-10-09T08:00:52.479Z,12.40
2022-10-09T08:03:23.129Z,12.00
2022-10-09T08:05:58.516Z,12.90
2022-10-09T08:08:29.100Z,12.00
2022-10-09T08:10:59.817Z,12.10
2022-10-09T08:13:30.259Z,12.90
2022-10-09T08:16:01.647Z,10.80
2022-10-09T08:21:26.960Z,12.70
2022-10-09T08:23:59.062Z,14.60
2022-10-09T08:26:31.604Z,12.50
2022-10-09T08:29:03.695Z,11.10
2022-10-09T08:31:35.005Z,11.80
2022-10-09T08:36:35.667Z,17.20
2022-10-09T08:39:06.679Z,9.50
2022-10-09T08:41:48.493Z,10.70
2022-10-09T08:44:23.586Z,12.30
2022-10-09T08:47:01.437Z,10.10
2022-10-09T08:49:41.509Z,12.80
2022-10-09T08:52:29.370Z,10.20
2022-10-09T08:55:05.336Z,8.50
2022-10-09T08:57:37.052Z,10.30
2022-10-09T09:00:17.962Z,8.70
2022-10-09T09:03:06.501Z,8.70
2022-10-09T09:05:46.443Z,9.60
2022-10-09T09:08:29.096Z,8.00
2022-10-09T09:11:10.932Z,8.30
2022-10-09T09:13:50.939Z,9.40
2022-10-09T09:16:29.688Z,10.80
2022-10-09T09:19:17.667Z,8.80
2022-10-09T09:21:51.255Z,9.00
2022-10-09T09:24:24.361Z,6.70
2022-10-09T09:27:03.030Z,9.90
2022-10-09T09:29:40.702Z,7.20
2022-10-09T09:32:21.675Z,8.30
2022-10-09T09:34:55.059Z,9.60
2022-10-09T09:37:26.136Z,7.20
2022-10-09T09:42:47.931Z,6.90
2022-10-09T09:45:23.863Z,6.00
2022-10-09T09:47:58.927Z,8.00
2022-10-09T09:50:48.678Z,6.10
2022-10-09T09:53:32.882Z,7.40
2022-10-09T09:56:03.475Z,7.80
2022-10-09T09:58:39.394Z,5.20
2022-10-09T10:01:20.605Z,8.10
2022-10-09T10:03:53.036Z,7.70
2022-10-09T10:06:29.915Z,8.20
2022-10-09T10:09:06.192Z,7.50
2022-10-09T10:11:37.467Z,9.40
2022-10-09T10:16:41.197Z,6.00
2022-10-09T10:19:23.395Z,6.20
2022-10-09T10:22:00.576Z,7.80
2022-10-09T10:24:36.276Z,8.20
2022-10-09T10:27:14.887Z,6.50
2022-10-09T10:29:47.907Z,6.10
2022-10-09T10:32:24.538Z,6.70
2022-10-09T10:34:58.705Z,7.80
2022-10-09T10:37:34.005Z,6.70
2022-10-09T10:40:11.654Z,8.10
2022-10-09T10:42:50.878Z,5.30
2022-10-09T10:45:25.490Z,6.80
2022-10-09T10:47:59.458Z,7.40
2022-10-09T10:50:37.301Z,8.50
2022-10-09T10:53:18.959Z,7.70
2022-10-09T10:55:56.071Z,5.90
2022-10-09T10:58:31.445Z,8.20
2022-10-09T11:01:17.425Z,8.30
2022-10-09T11:04:05.276Z,7.10
2022-10-09T11:06:43.121Z,10.20
2022-10-09T11:09:19.482Z,5.80
2022-10-09T11:11:56.387Z,7.20
2022-10-09T11:14:42.925Z,7.20
2022-10-09T11:17:26.542Z,8.60
2022-10-09T11:20:10.512Z,6.70
2022-10-09T11:22:56.687Z,8.40
2022-10-09T11:25:36.164Z,7.50
2022-10-09T11:28:11.965Z,7.50
2022-10-09T11:30:49.445Z,5.00
2022-10-09T11:33:34.065Z,5.20
2022-10-09T11:36:11.515Z,8.40
2022-10-09T11:38:45.581Z,7.10
2022-10-09T11:41:16.626Z,7.80
2022-10-09T11:44:02.321Z,8.70
2022-10-09T11:46:43.601Z,5.00
2022-10-09T11:51:54.830Z,7.90
2022-10-09T11:54:27.572Z,6.10
2022-10-09T11:57:00.771Z,7.10
2022-10-09T11:59:36.128Z,7.70
2022-10-09T12:02:27.032Z,8.90
2022-10-09T12:05:00.884Z,7.00
2022-10-09T12:10:33.546Z,7.60
2022-10-09T12:13:06.141Z,7.80
2022-10-09T12:15:54.914Z,6.50
2022-10-09T12:18:30.143Z,9.20
2022-10-09T12:21:05.944Z,7.10
2022-10-09T12:23:40.873Z,9.50
2022-10-09T12:26:14.146Z,6.00
2022-10-09T12:28:49.835Z,8.00
2022-10-09T12:31:27.939Z,7.90
2022-10-09T12:34:02.407Z,9.30
2022-10-09T12:36:34.501Z,9.30
2022-10-09T12:39:20.673Z,7.70
2022-10-09T12:41:56.179Z,8.20
2022-10-09T12:44:36.843Z,11.60
2022-10-09T12:47:21.326Z,11.10
2022-10-09T12:50:05.236Z,10.20
2022-10-09T12:52:43.483Z,8.10
2022-10-09T12:55:29.155Z,8.40
2022-10-09T12:58:07.404Z,6.90
2022-10-09T13:00:38.860Z,7.40
2022-10-09T13:03:21.129Z,11.80
2022-10-09T13:05:53.425Z,8.20
2022-10-09T13:08:31.123Z,7.50
2022-10-09T13:11:19.357Z,6.60
2022-10-09T13:13:54.036Z,7.60
2022-10-09T13:16:25.801Z,8.80
2022-10-09T13:19:01.295Z,7.90
2022-10-09T13:21:35.295Z,8.10
2022-10-09T13:24:13.795Z,8.50
2022-10-09T13:26:46.145Z,9.50
2022-10-09T13:29:16.830Z,9.10
2022-10-09T13:31:47.516Z,7.10
2022-10-09T13:36:49.180Z,6.90
2022-10-09T13:39:19.631Z,7.00
2022-10-09T13:41:52.961Z,8.40
2022-10-09T13:44:23.593Z,6.20
2022-10-09T13:46:54.346Z,9.20
2022-10-09T13:51:58.627Z,8.50
2022-10-09T13:54:31.955Z,8.10
2022-10-09T13:57:12.060Z,8.70
2022-10-09T13:59:43.142Z,7.60
2022-10-09T14:02:14.236Z,6.30
2022-10-09T14:04:45.639Z,6.70
2022-10-09T14:07:16.270Z,5.80
2022-10-09T14:09:46.733Z,7.30
2022-10-09T14:12:17.462Z,8.90
2022-10-09T14:14:53.720Z,8.00
2022-10-09T14:17:24.261Z,7.00
2022-10-09T14:19:54.886Z,7.90
2022-10-09T14:22:25.473Z,7.10
2022-10-09T14:24:56.187Z,6.20
2022-10-09T14:29:57.307Z,6.50
2022-10-09T14:32:27.952Z,8.90
2022-10-09T14:35:00.166Z,8.10
2022-10-09T14:37:40.970Z,8.70
2022-10-09T14:40:13.768Z,5.70
2022-10-09T14:42:44.115Z,7.70
2022-10-09T14:45:14.964Z,7.00
2022-10-09T14:50:14.097Z,6.30
2022-10-09T14:52:44.682Z,7.60
2022-10-09T14:55:14.976Z,6.10
2022-10-09T14:57:45.488Z,7.80
2022-10-09T15:00:17.597Z,6.50
2022-10-09T15:02:47.928Z,9.00
2022-10-09T15:05:18.280Z,7.10
2022-10-09T15:07:48.890Z,8.80
2022-10-09T15:12:48.472Z,5.40
2022-10-09T15:15:19.001Z,5.40
2022-10-09T15:17:49.682Z,9.60
2022-10-09T15:20:20.458Z,7.50
2022-10-09T15:22:50.837Z,7.10
2022-10-09T15:25:25.216Z,6.80
2022-10-09T15:27:55.902Z,8.10
2022-10-09T15:30:26.830Z,6.20
2022-10-09T15:32:57.667Z,5.90
2022-10-09T15:37:56.770Z,6.60
2022-10-09T15:40:29.528Z,8.30
2022-10-09T15:42:59.888Z,5.30
2022-10-09T15:45:30.203Z,7.00
2022-10-09T15:48:00.495Z,6.00
2022-10-09T15:50:31.095Z,7.70
2022-10-09T15:53:01.429Z,6.80
2022-10-09T15:55:31.730Z,7.40
2022-10-09T15:58:02.151Z,10.10
2022-10-09T16:00:35.408Z,7.90
2022-10-09T16:03:05.864Z,7.90
2022-10-09T16:05:41.112Z,7.20
2022-10-09T16:08:12.429Z,11.60
2022-10-09T16:10:49.018Z,9.90
2022-10-09T16:13:20.609Z,10.60
2022-10-09T16:15:51.485Z,7.10
2022-10-09T16:18:24.267Z,8.20
2022-10-09T16:20:54.758Z,7.90
2022-10-09T16:23:25.069Z,7.60
2022-10-09T16:26:01.454Z,6.40
2022-10-09T16:28:32.638Z,8.60
2022-10-09T16:33:32.307Z,6.60
2022-10-09T16:36:14.020Z,7.80
2022-10-09T16:38:46.020Z,8.90
2022-10-09T16:41:19.629Z,7.90
2022-10-09T16:43:52.317Z,7.50
2022-10-09T16:46:25.351Z,7.20
2022-10-09T16:48:58.002Z,8.40
2022-10-09T16:51:30.447Z,9.10
2022-10-09T16:54:03.125Z,11.90
2022-10-09T16:56:36.232Z,9.60
2022-10-09T16:59:09.134Z,9.40
2022-10-09T17:01:43.762Z,11.10
2022-10-09T17:04:14.750Z,11.70
2022-10-09T17:06:46.557Z,13.40
2022-10-09T17:09:17.589Z,11.90
2022-10-09T17:11:51.534Z,16.40
2022-10-09T17:14:26.555Z,12.10
2022-10-09T17:17:04.529Z,10.00
2022-10-09T17:19:35.030Z,10.80
2022-10-09T17:22:06.479Z,8.50
2022-10-09T17:24:37.196Z,11.90
2022-10-09T17:27:09.831Z,10.70
2022-10-09T17:29:40.297Z,10.10
2022-10-09T17:32:10.599Z,10.90
2022-10-09T17:34:45.731Z,10.70
2022-10-09T17:37:16.070Z,11.70
2022-10-09T17:39:51.843Z,12.70
2022-10-09T17:42:22.853Z,14.40
2022-10-09T17:44:53.372Z,12.50
2022-10-09T17:47:23.800Z,14.10
2022-10-09T17:49:54.669Z,11.50
2022-10-09T17:52:25.149Z,15.10
2022-10-09T17:54:55.819Z,13.70
2022-10-09T17:57:26.255Z,15.30
2022-10-09T17:59:56.675Z,15.50
2022-10-09T18:02:27.086Z,18.20
2022-10-09T18:04:58.201Z,15.80
2022-10-09T18:07:29.526Z,18.00
2022-10-09T18:09:59.875Z,17.40
2022-10-09T18:12:30.400Z,15.40
2022-10-09T18:15:00.949Z,15.50
2022-10-09T18:17:33.437Z,15.90
2022-10-09T18:20:04.168Z,22.50
2022-10-09T18:22:35.834Z,18.80
2022-10-09T18:25:07.491Z,15.40
2022-10-09T18:27:38.061Z,15.20
2022-10-09T18:30:10.603Z,13.60
2022-10-09T18:32:41.435Z,15.40
2022-10-09T18:35:12.217Z,15.00
2022-10-09T18:37:42.702Z,21.70
2022-10-09T18:40:14.136Z,16.50
2022-10-09T18:42:45.347Z,17.20
2022-10-09T18:45:17.354Z,20.60
2022-10-09T18:47:48.130Z,16.70
2022-10-09T18:50:19.746Z,14.90
2022-10-09T18:52:50.972Z,18.10
2022-10-09T18:57:51.599Z,16.60
2022-10-09T19:00:22.220Z,13.70
2022-10-09T19:02:52.653Z,17.60
2022-10-09T19:05:23.125Z,14.40
2022-10-09T19:07:55.705Z,13.10
2022-10-09T19:10:26.271Z,14.40
2022-10-09T19:12:56.627Z,13.60
2022-10-09T19:15:27.138Z,11.50
2022-10-09T19:17:57.686Z,11.70
2022-10-09T19:20:29.268Z,16.00
2022-10-09T19:22:59.851Z,13.30
2022-10-09T19:25:30.256Z,10.70
2022-10-09T19:28:00.679Z,14.00
2022-10-09T19:30:31.368Z,11.60
2022-10-09T19:33:02.080Z,11.40
2022-10-09T19:35:32.824Z,14.90
2022-10-09T19:38:04.421Z,14.20
2022-10-09T19:40:36.984Z,18.20
2022-10-09T19:43:07.791Z,16.00
2022-10-09T19:45:38.719Z,14.00
2022-10-09T19:48:10.284Z,22.70
2022-10-09T19:53:14.939Z,17.70
2022-10-09T19:55:45.434Z,14.20
2022-10-09T19:58:17.900Z,16.10
2022-10-09T20:00:48.722Z,15.20
2022-10-09T20:03:23.435Z,13.40
2022-10-09T20:05:54.552Z,15.40
2022-10-09T20:08:31.305Z,15.70
2022-10-09T20:11:03.523Z,11.60
2022-10-09T20:13:35.253Z,10.90
2022-10-09T20:16:10.037Z,15.20
2022-10-09T20:18:42.556Z,11.40
2022-10-09T20:21:14.986Z,12.40
2022-10-09T20:23:45.814Z,15.70
2022-10-09T20:26:18.272Z,10.50
2022-10-09T20:28:50.083Z,13.10
2022-10-09T20:31:23.765Z,10.50
2022-10-09T20:33:56.246Z,11.70
2022-10-09T20:36:31.200Z,9.30
2022-10-09T20:39:03.663Z,9.20
2022-10-09T20:41:37.208Z,9.20
2022-10-09T20:44:25.163Z,10.90
2022-10-09T20:46:56.912Z,12.10
2022-10-09T20:49:27.652Z,9.30
2022-10-09T20:51:58.572Z,7.60
2022-10-09T20:54:30.430Z,9.20
2022-10-09T20:57:01.129Z,9.90
2022-10-09T20:59:31.932Z,9.80
2022-10-09T21:02:02.597Z,8.80
2022-10-09T21:04:33.329Z,7.10
2022-10-09T21:07:03.899Z,10.00
2022-10-09T21:09:34.635Z,10.90
2022-10-09T21:12:06.962Z,8.40
2022-10-09T21:14:39.343Z,10.40
2022-10-09T21:17:10.094Z,11.20
2022-10-09T21:19:41.048Z,8.30
2022-10-09T21:22:11.603Z,10.60
2022-10-09T21:24:42.147Z,7.90
2022-10-09T21:27:12.801Z,8.50
2022-10-09T21:29:43.516Z,9.70
2022-10-09T21:32:13.955Z,8.40
2022-10-09T21:34:45.374Z,7.40
2022-10-09T21:39:53.383Z,9.60
2022-10-09T21:42:24.058Z,9.60
2022-10-09T21:44:54.708Z,11.30
2022-10-09T21:47:25.504Z,9.10
2022-10-09T21:49:56.407Z,9.90
2022-10-09T21:52:27.108Z,9.20
2022-10-09T21:54:57.796Z,8.90
2022-10-09T21:57:28.429Z,8.90
2022-10-09T21:59:59.271Z,9.00
2022-10-09T22:02:29.856Z,6.80
2022-10-09T22:05:00.492Z,7.70
2022-10-09T22:07:33.107Z,7.80
2022-10-09T22:10:04.599Z,8.60
2022-10-09T22:12:35.764Z,8.70
2022-10-09T22:15:07.412Z,8.60
2022-10-09T22:17:38.173Z,9.20
2022-10-09T22:20:09.933Z,10.10
2022-10-09T22:22:40.634Z,9.20
2022-10-09T22:25:11.950Z,10.50
2022-10-09T22:30:13.960Z,9.60
2022-10-09T22:32:44.656Z,10.30
2022-10-09T22:35:15.514Z,10.20
2022-10-09T22:37:46.180Z,8.30
2022-10-09T22:40:17.100Z,12.10
2022-10-09T22:42:48.246Z,11.20
2022-10-09T22:45:19.755Z,8.50
2022-10-09T22:47:50.606Z,9.50
2022-10-09T22:50:21.495Z,8.80
2022-10-09T22:52:52.996Z,8.00
2022-10-09T22:55:30.395Z,10.30
2022-10-09T22:58:01.086Z,8.60
2022-10-09T23:00:31.629Z,8.90
2022-10-09T23:03:02.377Z,7.30
2022-10-09T23:05:36.982Z,8.40
2022-10-09T23:08:08.053Z,8.70
2022-10-09T23:10:46.958Z,7.90
2022-10-09T23:13:17.605Z,10.20
2022-10-09T23:15:48.309Z,9.80
2022-10-09T23:18:19.020Z,9.10
2022-10-09T23:20:49.646Z,9.10
2022-10-09T23:23:20.314Z,10.10
2022-10-09T23:26:16.325Z,7.80
2022-10-09T23:28:53.932Z,9.20
2022-10-09T23:31:25.486Z,8.70
2022-10-09T23:33:56.268Z,8.80
2022-10-09T23:36:28.852Z,8.30
2022-10-09T23:39:00.312Z,7.10
2022-10-09T23:44:00.602Z,9.90
2022-10-09T23:46:34.044Z,11.20
2022-10-09T23:49:04.937Z,10.10
2022-10-09T23:51:35.492Z,11.10
2022-10-09T23:54:07.192Z,12.40
2022-10-09T23:56:38.259Z,8.30
2022-10-09T23:59:09.585Z,11.00
